首页
METAR-TAF:

METAR-TAF

机场 :

因纽维克, 西北特區, 加拿大

纬度: 68-18N, 经度: 133-29W, 海拔: 59米

当前天气观测

该预报发布于48分钟前的01:00 UTC
风速5节,风向
温度 -10°C
湿度 40%
气压 1019 hPa
能見度: 24.1公里
少量云层高于24000英尺

METAR: CYEV 040100Z 19005KT 15SM FEW240 M10/M21 A3009 RMK CI1 SLP201

时间: 19:48 (01:48 UTC)

预报

该预报发布于1小时和10分钟前的00:38 UTC
预报有效从04日的 01点(UTC)到 04日的 13点(UTC)
风速5节,风向南转西南
能見度: 10公里
少量云层高于24000英尺
成为
从 04日的 01点(UTC)到 04日的 03点(UTC)
风速6节,风向南转南东

TAF: CYEV 040038Z 0401/0413 20005KT P6SM FEW240 BECMG 0401/0403 15006KT RMK NXT FCST BY 040700Z

超过4000个机场的气象观测和天气预报(METAR&TAF报告)。

可查询的气象台以黄色和红色小点在地图上表示。

将鼠标移到小点上方,可查看气象台名称。

然后点击查看天气观测和预报。

如需切换地图:点击带黑十字的绿色按钮放大地图;点击带横线的绿色按钮缩小地图;或者点击绿色箭头查看邻近地区的地图。


METAR-TAF: